createdAt,value
2018-02-23T00:00:23.171Z,3.19
2018-02-23T00:02:50.838Z,3.23
2018-02-23T00:05:18.484Z,3.26
2018-02-23T00:07:47.979Z,3.32
2018-02-23T00:10:15.711Z,3.32
2018-02-23T00:12:43.278Z,3.36
2018-02-23T00:15:10.889Z,3.41
2018-02-23T00:17:38.518Z,3.48
2018-02-23T00:20:06.087Z,3.44
2018-02-23T00:22:41.654Z,3.36
2018-02-23T00:25:09.224Z,3.42
2018-02-23T00:27:36.822Z,3.48
2018-02-23T00:30:04.452Z,3.49
2018-02-23T00:32:32.008Z,3.45
2018-02-23T00:34:59.573Z,3.42
2018-02-23T00:37:27.219Z,3.21
2018-02-23T00:39:54.810Z,3.21
2018-02-23T00:42:23.247Z,3.29
2018-02-23T00:44:50.952Z,3.23
2018-02-23T00:47:18.514Z,3.16
2018-02-23T00:49:46.087Z,3.19
2018-02-23T00:52:13.710Z,3.16
2018-02-23T00:54:41.278Z,3.24
2018-02-23T00:57:08.852Z,3.31
2018-02-23T00:59:36.538Z,3.33
2018-02-23T01:02:04.114Z,3.38
2018-02-23T01:04:31.704Z,3.13
2018-02-23T01:06:59.351Z,3.14
2018-02-23T01:09:26.918Z,3.22
2018-02-23T01:11:54.490Z,3.28
2018-02-23T01:14:22.187Z,3.23
2018-02-23T01:16:49.769Z,3.24
2018-02-23T01:19:17.411Z,3.29
2018-02-23T01:21:45.028Z,3.29
2018-02-23T01:24:12.656Z,3.33
2018-02-23T01:26:40.290Z,3.35
2018-02-23T01:29:07.899Z,3.38
2018-02-23T01:31:35.462Z,3.29
2018-02-23T01:34:03.034Z,3.23
2018-02-23T01:36:30.658Z,3.25
2018-02-23T01:38:58.222Z,3.28
2018-02-23T01:41:25.852Z,3.23
2018-02-23T01:43:53.474Z,3.13
2018-02-23T01:46:21.108Z,3.21
2018-02-23T01:48:48.686Z,3.26
2018-02-23T01:51:16.326Z,3.24
2018-02-23T01:53:43.906Z,3.24
2018-02-23T01:56:11.479Z,3.22
2018-02-23T01:58:39.098Z,3.17
2018-02-23T02:01:06.733Z,3.10
2018-02-23T02:03:34.337Z,3.10
2018-02-23T02:06:01.954Z,3.05
2018-02-23T02:08:29.503Z,2.99
2018-02-23T02:10:57.071Z,3.01
2018-02-23T02:13:24.712Z,2.87
2018-02-23T02:15:52.277Z,2.83
2018-02-23T02:18:19.913Z,2.73
2018-02-23T02:20:47.534Z,2.67
2018-02-23T02:23:15.241Z,2.61
2018-02-23T02:25:42.818Z,2.54
2018-02-23T02:28:10.446Z,2.59
2018-02-23T02:30:38.028Z,2.60
2018-02-23T02:33:05.604Z,2.52
2018-02-23T02:35:33.222Z,2.45
2018-02-23T02:38:00.787Z,2.50
2018-02-23T02:40:28.353Z,2.61
2018-02-23T02:42:56.052Z,2.59
2018-02-23T02:45:23.659Z,2.63
2018-02-23T02:47:51.299Z,2.58
2018-02-23T02:50:19.012Z,2.56
2018-02-23T02:52:46.586Z,2.48
2018-02-23T02:55:14.210Z,2.55
2018-02-23T02:57:41.829Z,2.56
2018-02-23T03:00:09.394Z,2.51
2018-02-23T03:02:36.963Z,2.52
2018-02-23T03:05:04.595Z,2.58
2018-02-23T03:07:32.173Z,2.66
2018-02-23T03:09:59.743Z,2.70
2018-02-23T03:12:27.427Z,2.72
2018-02-23T03:14:55.046Z,2.72
2018-02-23T03:17:22.632Z,2.70
2018-02-23T03:19:50.260Z,2.71
2018-02-23T03:22:17.895Z,2.70
2018-02-23T03:24:45.567Z,2.65
2018-02-23T03:27:13.187Z,2.60
2018-02-23T03:29:40.764Z,2.60
2018-02-23T03:32:08.394Z,2.59
2018-02-23T03:34:36.019Z,2.63
2018-02-23T03:37:03.582Z,2.68
2018-02-23T03:39:31.163Z,2.67
2018-02-23T03:41:58.790Z,2.65
2018-02-23T03:44:26.369Z,2.67
2018-02-23T03:46:53.939Z,2.73
2018-02-23T03:49:21.570Z,2.76
2018-02-23T03:51:49.200Z,2.78
2018-02-23T03:54:16.770Z,2.80
2018-02-23T03:56:44.403Z,2.79
2018-02-23T03:59:11.970Z,2.78
2018-02-23T04:01:39.538Z,2.81
2018-02-23T04:04:07.228Z,2.80
2018-02-23T04:06:34.799Z,2.80
2018-02-23T04:09:02.368Z,2.84
2018-02-23T04:11:30.004Z,2.82
2018-02-23T04:13:57.583Z,2.83
2018-02-23T04:16:25.150Z,2.85
2018-02-23T04:18:52.775Z,2.85
2018-02-23T04:21:20.404Z,2.90
2018-02-23T04:23:47.972Z,2.88
2018-02-23T04:26:15.658Z,2.90
2018-02-23T04:28:43.277Z,2.89
2018-02-23T04:31:10.851Z,2.91
2018-02-23T04:33:38.539Z,2.93
2018-02-23T04:36:06.133Z,2.98
2018-02-23T04:38:33.708Z,2.98
2018-02-23T04:41:01.343Z,2.94
2018-02-23T04:43:28.905Z,2.87
2018-02-23T04:45:56.466Z,2.82
2018-02-23T04:48:24.092Z,2.85
2018-02-23T04:50:51.729Z,2.86
2018-02-23T04:53:19.290Z,2.82
2018-02-23T04:55:46.906Z,2.88
2018-02-23T04:58:14.481Z,2.84
2018-02-23T05:00:42.107Z,2.88
2018-02-23T05:03:09.727Z,2.92
2018-02-23T05:05:37.324Z,2.96
2018-02-23T05:08:04.887Z,3.02
2018-02-23T05:10:32.527Z,3.02
2018-02-23T05:13:00.171Z,3.04
2018-02-23T05:15:27.796Z,3.01
2018-02-23T05:17:55.436Z,3.05
2018-02-23T05:20:23.019Z,3.10
2018-02-23T05:22:50.591Z,3.10
2018-02-23T05:25:18.291Z,3.12
2018-02-23T05:27:45.877Z,3.15
2018-02-23T05:30:13.456Z,3.14
2018-02-23T05:32:41.191Z,3.18
2018-02-23T05:35:08.835Z,3.23
2018-02-23T05:37:36.410Z,3.21
2018-02-23T05:40:04.046Z,3.23
2018-02-23T05:42:31.614Z,3.26
2018-02-23T05:44:59.234Z,3.22
2018-02-23T05:47:26.862Z,3.23
2018-02-23T05:49:54.434Z,3.20
2018-02-23T05:52:22.011Z,3.21
2018-02-23T05:54:49.691Z,3.23
2018-02-23T05:57:17.327Z,3.28
2018-02-23T05:59:44.899Z,3.31
2018-02-23T06:02:12.532Z,3.36
2018-02-23T06:04:40.114Z,3.30
2018-02-23T06:07:07.754Z,3.30
2018-02-23T06:09:35.439Z,3.25
2018-02-23T06:12:03.068Z,3.26
2018-02-23T06:14:30.711Z,3.27
2018-02-23T06:16:58.409Z,3.35
2018-02-23T06:19:31.651Z,3.35
2018-02-23T06:21:59.324Z,3.39
2018-02-23T06:24:26.901Z,3.41
2018-02-23T06:26:54.470Z,3.33
2018-02-23T06:29:22.144Z,3.39
2018-02-23T06:31:49.722Z,3.41
2018-02-23T06:34:17.351Z,3.46
2018-02-23T06:36:44.987Z,3.43
2018-02-23T06:39:12.559Z,3.48
2018-02-23T06:41:40.130Z,3.49
2018-02-23T06:44:07.736Z,3.56
2018-02-23T06:46:35.305Z,3.66
2018-02-23T06:49:02.871Z,3.72
2018-02-23T06:51:30.555Z,3.75
2018-02-23T06:53:58.179Z,3.84
2018-02-23T06:56:25.811Z,3.86
2018-02-23T06:58:53.508Z,3.86
2018-02-23T07:01:21.150Z,3.95
2018-02-23T07:03:48.819Z,3.95
2018-02-23T07:06:16.423Z,4.03
2018-02-23T07:08:43.991Z,4.13
2018-02-23T07:11:11.583Z,4.20
2018-02-23T07:13:39.280Z,4.25
2018-02-23T07:16:06.981Z,4.20
2018-02-23T07:18:34.561Z,4.07
2018-02-23T07:21:02.277Z,4.09
2018-02-23T07:23:29.914Z,4.10
2018-02-23T07:25:57.584Z,4.10
2018-02-23T07:28:25.273Z,4.13
2018-02-23T07:30:52.917Z,4.06
2018-02-23T07:33:20.485Z,3.95
2018-02-23T07:35:48.179Z,3.99
2018-02-23T07:38:15.821Z,4.03
2018-02-23T07:40:43.399Z,4.02
2018-02-23T07:43:11.030Z,4.03
2018-02-23T07:45:38.613Z,4.04
2018-02-23T07:48:06.188Z,4.16
2018-02-23T07:50:33.859Z,4.23
2018-02-23T07:53:01.543Z,4.19
2018-02-23T07:55:29.110Z,4.38
2018-02-23T07:57:56.738Z,4.42
2018-02-23T08:00:24.351Z,4.54
2018-02-23T08:02:51.912Z,4.52
2018-02-23T08:05:19.547Z,4.37
2018-02-23T08:07:47.121Z,4.25
2018-02-23T08:10:14.761Z,4.15
2018-02-23T08:12:42.394Z,4.30
2018-02-23T08:15:10.072Z,4.31
2018-02-23T08:17:37.660Z,4.34
2018-02-23T08:20:05.317Z,4.40
2018-02-23T08:22:32.926Z,4.58
2018-02-23T08:25:00.559Z,4.54
2018-02-23T08:27:28.245Z,4.64
2018-02-23T08:29:55.825Z,4.77
2018-02-23T08:32:23.464Z,4.92
2018-02-23T08:34:51.111Z,4.81
2018-02-23T08:37:18.742Z,4.84
2018-02-23T08:39:46.319Z,4.91
2018-02-23T08:42:13.963Z,4.92
2018-02-23T08:44:41.538Z,4.93
2018-02-23T08:47:09.119Z,5.04
2018-02-23T08:49:36.816Z,4.99
2018-02-23T08:52:04.394Z,5.03
2018-02-23T08:54:31.970Z,5.15
2018-02-23T08:56:59.606Z,5.10
2018-02-23T08:59:27.190Z,5.16
2018-02-23T09:01:54.811Z,5.34
2018-02-23T09:04:22.443Z,5.46
2018-02-23T09:06:50.011Z,5.45
2018-02-23T09:09:17.583Z,5.35
2018-02-23T09:11:45.297Z,5.54
2018-02-23T09:14:12.984Z,5.60
2018-02-23T09:16:40.615Z,5.61
2018-02-23T09:19:08.301Z,5.70
2018-02-23T09:21:35.882Z,5.60
2018-02-23T09:24:03.448Z,5.52
2018-02-23T09:26:31.087Z,5.61
2018-02-23T09:28:58.660Z,5.71
2018-02-23T09:31:26.336Z,5.61
2018-02-23T09:34:05.789Z,5.68
2018-02-23T09:36:33.358Z,5.70
2018-02-23T09:39:01.007Z,5.71
2018-02-23T09:41:28.637Z,5.90
2018-02-23T09:43:56.283Z,5.77
2018-02-23T09:46:23.927Z,5.66
2018-02-23T09:48:51.565Z,5.75
2018-02-23T09:51:19.199Z,6.17
2018-02-23T09:53:46.778Z,6.51
2018-02-23T09:56:14.544Z,6.58
2018-02-23T09:58:42.119Z,6.73
2018-02-23T10:01:09.712Z,6.91
2018-02-23T10:03:37.464Z,6.84
2018-02-23T10:06:05.227Z,6.90
2018-02-23T10:08:32.808Z,7.04
2018-02-23T10:11:00.442Z,7.18
2018-02-23T10:13:28.020Z,6.99
2018-02-23T10:15:55.650Z,6.79
2018-02-23T10:18:23.269Z,6.96
2018-02-23T10:20:50.839Z,6.94
2018-02-23T10:23:18.402Z,7.12
2018-02-23T10:25:46.041Z,7.30
2018-02-23T10:28:13.626Z,7.47
2018-02-23T10:30:41.190Z,7.36
2018-02-23T10:33:08.826Z,7.50
2018-02-23T10:35:36.501Z,7.54
2018-02-23T10:38:04.187Z,7.41
2018-02-23T10:40:31.863Z,7.55
2018-02-23T10:42:59.524Z,7.59
2018-02-23T10:45:27.137Z,7.73
2018-02-23T10:47:59.207Z,7.69
2018-02-23T10:50:26.821Z,7.68
2018-02-23T10:52:54.399Z,7.67
2018-02-23T10:55:22.104Z,7.74
2018-02-23T10:57:49.770Z,7.78
2018-02-23T11:00:17.371Z,7.80
2018-02-23T11:02:45.052Z,7.81
2018-02-23T11:05:12.619Z,7.83
2018-02-23T11:07:40.218Z,7.93
2018-02-23T11:10:07.914Z,8.05
2018-02-23T11:12:35.534Z,7.82
2018-02-23T11:15:03.094Z,8.08
2018-02-23T11:17:30.724Z,8.07
2018-02-23T11:19:58.396Z,7.86
2018-02-23T11:22:25.976Z,7.95
2018-02-23T11:24:53.614Z,7.92
2018-02-23T11:27:21.187Z,7.92
2018-02-23T11:29:48.802Z,8.12
2018-02-23T11:32:16.481Z,8.12
2018-02-23T11:34:44.115Z,8.19
2018-02-23T11:37:11.760Z,8.21
2018-02-23T11:39:39.382Z,7.95
2018-02-23T11:42:07.007Z,7.99
2018-02-23T11:44:34.650Z,8.30
2018-02-23T11:47:02.274Z,8.39
2018-02-23T11:49:29.838Z,8.44
2018-02-23T11:51:57.407Z,8.63
2018-02-23T11:54:25.047Z,8.76
2018-02-23T11:56:52.640Z,8.94
2018-02-23T11:59:20.241Z,8.75
2018-02-23T12:01:48.535Z,8.91
2018-02-23T12:04:16.163Z,8.80
2018-02-23T12:06:43.795Z,8.85
2018-02-23T12:09:11.418Z,9.00
2018-02-23T12:11:38.985Z,8.96
2018-02-23T12:14:06.550Z,8.93
2018-02-23T12:16:34.185Z,8.97
2018-02-23T12:19:01.849Z,8.90
2018-02-23T12:21:29.509Z,8.91
2018-02-23T12:23:57.247Z,9.13
2018-02-23T12:26:24.833Z,8.94
2018-02-23T12:28:52.406Z,8.99
2018-02-23T12:31:20.017Z,9.09
2018-02-23T12:33:47.586Z,9.03
2018-02-23T12:36:15.225Z,8.97
2018-02-23T12:38:42.858Z,8.91
2018-02-23T12:41:10.488Z,8.89
2018-02-23T12:43:38.097Z,8.73
2018-02-23T12:46:05.694Z,8.86
2018-02-23T12:48:33.258Z,8.87
2018-02-23T12:51:00.947Z,8.91
2018-02-23T12:53:28.581Z,8.91
2018-02-23T12:55:56.156Z,8.82
2018-02-23T12:58:23.716Z,8.72
2018-02-23T13:00:51.355Z,8.73
2018-02-23T13:03:18.983Z,8.76
2018-02-23T13:05:46.611Z,8.72
2018-02-23T13:08:14.244Z,8.50
2018-02-23T13:10:41.815Z,8.52
2018-02-23T13:13:09.395Z,8.55
2018-02-23T13:15:37.037Z,8.65
2018-02-23T13:18:04.631Z,8.69
2018-02-23T13:20:32.212Z,8.62
2018-02-23T13:22:59.843Z,8.53
2018-02-23T13:25:27.484Z,8.42
2018-02-23T13:28:00.528Z,8.47
2018-02-23T13:30:28.215Z,8.52
2018-02-23T13:32:55.849Z,8.49
2018-02-23T13:35:23.533Z,8.54
2018-02-23T13:37:51.122Z,8.19
2018-02-23T13:40:18.731Z,8.10
2018-02-23T13:42:46.401Z,8.03
2018-02-23T13:45:14.053Z,7.83
2018-02-23T13:47:41.707Z,7.82
2018-02-23T13:50:09.356Z,7.75
2018-02-23T13:52:37.011Z,7.71
2018-02-23T13:55:04.624Z,7.79
2018-02-23T13:57:32.263Z,7.78
2018-02-23T14:00:00.728Z,7.74
2018-02-23T14:02:28.298Z,7.68
2018-02-23T14:04:55.927Z,7.67
2018-02-23T14:07:24.488Z,7.57
2018-02-23T14:09:52.104Z,7.26
2018-02-23T14:12:19.752Z,7.24
2018-02-23T14:14:47.427Z,7.15
2018-02-23T14:17:15.056Z,6.95
2018-02-23T14:19:42.796Z,6.81
2018-02-23T14:22:10.372Z,6.82
2018-02-23T14:24:37.957Z,6.75
2018-02-23T14:27:05.583Z,6.70
2018-02-23T14:29:33.163Z,6.74
2018-02-23T14:32:00.790Z,6.63
2018-02-23T14:34:28.423Z,6.65
2018-02-23T14:36:55.990Z,6.63
2018-02-23T14:39:23.579Z,6.46
2018-02-23T14:41:51.214Z,6.44
2018-02-23T14:44:18.857Z,6.27
2018-02-23T14:46:46.498Z,6.26
2018-02-23T14:49:21.048Z,6.26
2018-02-23T14:51:48.715Z,6.20
2018-02-23T14:54:16.546Z,6.21
2018-02-23T14:56:44.187Z,6.07
2018-02-23T14:59:11.757Z,5.97
2018-02-23T15:01:39.400Z,5.94
2018-02-23T15:04:07.090Z,5.96
2018-02-23T15:06:34.669Z,5.87
2018-02-23T15:09:02.285Z,5.84
2018-02-23T15:11:29.914Z,5.82
2018-02-23T15:13:57.482Z,5.78
2018-02-23T15:16:25.114Z,5.69
2018-02-23T15:18:52.770Z,5.69
2018-02-23T15:21:20.369Z,5.76
2018-02-23T15:23:47.955Z,5.75
2018-02-23T15:26:15.583Z,5.70
2018-02-23T15:28:43.208Z,5.65
2018-02-23T15:31:22.727Z,5.54
2018-02-23T15:33:50.296Z,5.54
2018-02-23T15:36:17.869Z,5.64
2018-02-23T15:38:45.579Z,5.56
2018-02-23T15:41:13.165Z,5.63
2018-02-23T15:43:40.755Z,5.64
2018-02-23T15:46:08.422Z,5.53
2018-02-23T15:48:43.539Z,5.51
2018-02-23T15:51:26.838Z,5.41
2018-02-23T15:53:54.468Z,5.37
2018-02-23T15:56:22.152Z,5.27
2018-02-23T15:58:49.844Z,5.19
2018-02-23T16:01:17.462Z,5.10
2018-02-23T16:03:45.147Z,5.16
2018-02-23T16:06:12.882Z,5.23
2018-02-23T16:08:40.505Z,5.21
2018-02-23T16:11:08.164Z,5.23
2018-02-23T16:13:35.839Z,5.28
2018-02-23T16:16:03.455Z,5.20
2018-02-23T16:18:31.032Z,5.21
2018-02-23T16:20:58.682Z,5.13
2018-02-23T16:23:26.422Z,5.18
2018-02-23T16:25:53.999Z,5.11
2018-02-23T16:28:21.625Z,5.09
2018-02-23T16:30:49.279Z,5.09
2018-02-23T16:33:16.864Z,5.10
2018-02-23T16:35:44.586Z,5.07
2018-02-23T16:38:12.210Z,5.03
2018-02-23T16:40:39.778Z,4.97
2018-02-23T16:43:07.410Z,4.92
2018-02-23T16:45:35.053Z,4.98
2018-02-23T16:48:02.626Z,4.96
2018-02-23T16:50:30.252Z,4.98
2018-02-23T16:52:57.843Z,4.97
2018-02-23T16:55:25.443Z,4.89
2018-02-23T16:57:53.070Z,4.94
2018-02-23T17:00:20.712Z,4.92
2018-02-23T17:02:48.347Z,4.97
2018-02-23T17:05:15.951Z,4.98
2018-02-23T17:07:43.553Z,4.89
2018-02-23T17:10:11.139Z,4.82
2018-02-23T17:12:38.771Z,4.86
2018-02-23T17:15:06.340Z,4.92
2018-02-23T17:17:33.924Z,4.95
2018-02-23T17:20:01.615Z,4.95
2018-02-23T17:22:29.211Z,4.78
2018-02-23T17:24:56.774Z,4.69
2018-02-23T17:27:24.500Z,4.71
2018-02-23T17:29:52.086Z,4.75
2018-02-23T17:32:19.674Z,4.75
2018-02-23T17:34:47.361Z,4.78
2018-02-23T17:37:14.920Z,4.75
2018-02-23T17:39:42.522Z,4.78
2018-02-23T17:42:10.199Z,4.79
2018-02-23T17:44:37.783Z,4.83
2018-02-23T17:47:05.419Z,4.80
2018-02-23T17:49:33.120Z,4.80
2018-02-23T17:52:00.716Z,4.82
2018-02-23T17:54:28.409Z,4.70
2018-02-23T17:56:56.054Z,4.67
2018-02-23T17:59:23.638Z,4.62
2018-02-23T18:01:51.206Z,4.71
2018-02-23T18:04:18.901Z,4.79
2018-02-23T18:06:46.470Z,4.78
2018-02-23T18:09:14.139Z,4.88
2018-02-23T18:11:41.767Z,4.92
2018-02-23T18:14:09.349Z,4.96
2018-02-23T18:16:36.927Z,4.90
2018-02-23T18:19:04.569Z,4.86
2018-02-23T18:21:32.212Z,4.88
2018-02-23T18:23:59.908Z,4.85
2018-02-23T18:26:27.591Z,4.89
2018-02-23T18:29:02.582Z,4.91
2018-02-23T18:31:30.266Z,4.94
2018-02-23T18:33:57.838Z,4.97
2018-02-23T18:36:25.410Z,5.00
2018-02-23T18:38:53.043Z,5.05
2018-02-23T18:41:20.748Z,5.09
2018-02-23T18:43:48.368Z,5.14
2018-02-23T18:46:16.055Z,5.11
2018-02-23T18:48:43.630Z,5.14
2018-02-23T18:51:11.250Z,5.19
2018-02-23T18:53:38.887Z,5.21
2018-02-23T18:56:06.518Z,5.24
2018-02-23T18:58:34.212Z,5.26
2018-02-23T19:01:01.839Z,5.27
2018-02-23T19:03:29.535Z,5.29
2018-02-23T19:05:57.160Z,5.34
2018-02-23T19:08:24.861Z,5.28
2018-02-23T19:10:52.515Z,5.18
2018-02-23T19:13:20.119Z,5.13
2018-02-23T19:15:47.811Z,5.13
2018-02-23T19:18:15.391Z,5.05
2018-02-23T19:20:42.992Z,5.05
2018-02-23T19:23:10.687Z,5.04
2018-02-23T19:25:38.371Z,5.03
2018-02-23T19:28:06.004Z,4.95
2018-02-23T19:30:33.683Z,4.96
2018-02-23T19:33:01.313Z,4.92
2018-02-23T19:35:28.938Z,4.89
2018-02-23T19:37:56.678Z,4.85
2018-02-23T19:40:24.404Z,4.87
2018-02-23T19:42:51.997Z,4.78
2018-02-23T19:45:19.676Z,4.83
2018-02-23T19:47:47.331Z,4.81
2018-02-23T19:50:14.939Z,4.81
2018-02-23T19:52:42.611Z,4.78
2018-02-23T19:55:10.207Z,4.79
2018-02-23T19:57:37.809Z,4.72
2018-02-23T20:00:05.464Z,4.64
2018-02-23T20:02:33.146Z,4.65
2018-02-23T20:05:00.807Z,4.62
2018-02-23T20:07:28.448Z,4.61
2018-02-23T20:09:56.018Z,4.59
2018-02-23T20:12:23.655Z,4.59
2018-02-23T20:14:51.398Z,4.54
2018-02-23T20:17:19.052Z,4.54
2018-02-23T20:19:46.626Z,4.58
2018-02-23T20:22:14.246Z,4.57
2018-02-23T20:24:41.899Z,4.61
2018-02-23T20:27:10.418Z,4.65
2018-02-23T20:29:38.152Z,4.65
2018-02-23T20:32:05.831Z,4.62
2018-02-23T20:34:33.452Z,4.63
2018-02-23T20:37:01.159Z,4.59
2018-02-23T20:39:28.782Z,4.60
2018-02-23T20:41:56.383Z,4.61
2018-02-23T20:44:24.053Z,4.68
2018-02-23T20:46:51.645Z,4.75
2018-02-23T20:49:19.309Z,4.79
2018-02-23T20:51:46.942Z,4.81
2018-02-23T20:57:45.007Z,4.79
2018-02-23T21:00:12.603Z,4.74
2018-02-23T21:02:40.196Z,4.77
2018-02-23T21:05:07.820Z,4.78
2018-02-23T21:07:35.408Z,4.80
2018-02-23T21:10:02.995Z,4.80
2018-02-23T21:12:30.643Z,4.78
2018-02-23T21:14:58.224Z,4.79
2018-02-23T21:17:25.803Z,4.78
2018-02-23T21:19:53.481Z,4.80
2018-02-23T21:22:21.138Z,4.83
2018-02-23T21:24:48.737Z,4.80
2018-02-23T21:27:16.448Z,4.76
2018-02-23T21:29:44.094Z,4.78
2018-02-23T21:32:11.675Z,4.81
2018-02-23T21:34:39.304Z,4.86
2018-02-23T21:37:06.874Z,4.89
2018-02-23T21:39:34.521Z,4.85
2018-02-23T21:42:02.135Z,4.84
2018-02-23T21:47:28.754Z,4.91
2018-02-23T21:49:56.371Z,4.86
2018-02-23T21:52:24.016Z,4.88
2018-02-23T21:54:51.668Z,4.86
2018-02-23T21:57:19.301Z,4.83
2018-02-23T21:59:46.926Z,4.83
2018-02-23T22:02:14.604Z,4.86
2018-02-23T22:04:42.296Z,4.87
2018-02-23T22:07:09.892Z,4.86
2018-02-23T22:09:37.531Z,4.66
2018-02-23T22:12:05.116Z,4.59
2018-02-23T22:14:32.701Z,4.57
2018-02-23T22:17:00.359Z,4.60
2018-02-23T22:19:28.006Z,4.52
2018-02-23T22:21:55.578Z,4.51
2018-02-23T22:24:23.444Z,4.52
2018-02-23T22:26:51.065Z,4.55
2018-02-23T22:29:18.681Z,4.55
2018-02-23T22:31:46.326Z,4.51
2018-02-23T22:34:13.877Z,4.48
2018-02-23T22:36:41.518Z,4.33
2018-02-23T22:39:09.198Z,4.38
2018-02-23T22:41:36.822Z,4.33
2018-02-23T22:44:04.390Z,4.27
2018-02-23T22:46:32.023Z,4.21
2018-02-23T22:48:59.652Z,4.10
2018-02-23T22:51:27.251Z,4.07
2018-02-23T22:53:54.949Z,4.08
2018-02-23T22:56:22.540Z,4.09
2018-02-23T22:58:50.120Z,4.06
2018-02-23T23:01:17.821Z,4.05
2018-02-23T23:03:45.450Z,3.99
2018-02-23T23:06:13.152Z,4.01
2018-02-23T23:08:40.794Z,3.99
2018-02-23T23:11:08.432Z,3.89
2018-02-23T23:13:35.978Z,3.90
2018-02-23T23:16:03.684Z,3.99
2018-02-23T23:18:31.272Z,3.98
2018-02-23T23:20:58.865Z,4.02
2018-02-23T23:23:26.565Z,4.00
2018-02-23T23:25:54.176Z,3.95
2018-02-23T23:28:21.749Z,3.84
2018-02-23T23:30:49.432Z,3.89
2018-02-23T23:33:18.024Z,3.95
2018-02-23T23:35:45.612Z,3.95
2018-02-23T23:38:13.231Z,3.83
2018-02-23T23:40:40.802Z,3.84
2018-02-23T23:43:08.394Z,3.84
2018-02-23T23:45:36.022Z,3.90
2018-02-23T23:48:03.588Z,3.89
2018-02-23T23:50:31.217Z,3.92
2018-02-23T23:52:58.859Z,3.89
2018-02-23T23:55:26.501Z,3.82
2018-02-23T23:57:54.076Z,3.83
